createdAt,value
2022-10-09T00:01:17.702Z,9.32
2022-10-09T00:03:47.001Z,9.20
2022-10-09T00:06:17.499Z,9.15
2022-10-09T00:08:44.953Z,9.20
2022-10-09T00:11:15.490Z,9.25
2022-10-09T00:13:42.948Z,9.08
2022-10-09T00:16:13.015Z,9.04
2022-10-09T00:18:40.745Z,9.02
2022-10-09T00:21:20.880Z,8.89
2022-10-09T00:23:48.844Z,8.92
2022-10-09T00:26:16.876Z,9.06
2022-10-09T00:31:24.572Z,9.12
2022-10-09T00:33:52.119Z,8.93
2022-10-09T00:36:22.193Z,9.07
2022-10-09T00:38:50.173Z,8.89
2022-10-09T00:41:20.725Z,8.80
2022-10-09T00:43:52.710Z,8.71
2022-10-09T00:46:34.736Z,8.78
2022-10-09T00:49:01.930Z,8.54
2022-10-09T00:51:31.329Z,8.57
2022-10-09T00:53:59.698Z,8.66
2022-10-09T00:56:27.951Z,8.48
2022-10-09T00:58:57.810Z,8.52
2022-10-09T01:01:25.135Z,8.42
2022-10-09T01:03:52.430Z,8.46
2022-10-09T01:06:25.922Z,8.34
2022-10-09T01:09:05.258Z,8.24
2022-10-09T01:11:49.222Z,8.26
2022-10-09T01:14:16.293Z,8.43
2022-10-09T01:17:22.632Z,8.44
2022-10-09T01:19:59.561Z,8.36
2022-10-09T01:22:43.593Z,8.50
2022-10-09T01:26:01.688Z,8.35
2022-10-09T01:28:30.631Z,8.37
2022-10-09T01:31:01.603Z,8.29
2022-10-09T01:33:31.381Z,8.29
2022-10-09T01:36:00.865Z,8.18
2022-10-09T01:38:30.043Z,8.24
2022-10-09T01:40:58.226Z,8.17
2022-10-09T01:43:25.629Z,7.91
2022-10-09T01:45:52.867Z,7.92
2022-10-09T01:48:25.078Z,8.02
2022-10-09T01:50:58.216Z,8.05
2022-10-09T01:53:26.519Z,8.17
2022-10-09T01:55:57.534Z,8.04
2022-10-09T01:58:30.793Z,8.02
2022-10-09T02:01:07.731Z,8.00
2022-10-09T02:03:38.617Z,8.28
2022-10-09T02:06:08.305Z,7.94
2022-10-09T02:08:38.757Z,7.87
2022-10-09T02:11:06.891Z,7.87
2022-10-09T02:13:35.851Z,7.80
2022-10-09T02:16:24.369Z,7.84
2022-10-09T02:19:08.466Z,7.73
2022-10-09T02:21:46.430Z,7.68
2022-10-09T02:24:18.525Z,7.68
2022-10-09T02:26:45.994Z,7.77
2022-10-09T02:29:14.992Z,7.69
2022-10-09T02:31:43.614Z,7.60
2022-10-09T02:34:14.177Z,7.54
2022-10-09T02:36:41.789Z,7.58
2022-10-09T02:39:09.983Z,7.57
2022-10-09T02:41:37.129Z,7.63
2022-10-09T02:44:05.970Z,7.65
2022-10-09T02:46:34.329Z,7.51
2022-10-09T02:49:01.665Z,7.56
2022-10-09T02:51:28.873Z,7.53
2022-10-09T02:53:56.857Z,7.54
2022-10-09T02:56:24.180Z,7.65
2022-10-09T02:58:51.579Z,7.50
2022-10-09T03:01:20.155Z,7.41
2022-10-09T03:03:47.706Z,7.50
2022-10-09T03:06:17.746Z,7.36
2022-10-09T03:08:47.524Z,7.30
2022-10-09T03:11:16.895Z,7.25
2022-10-09T03:13:44.413Z,7.32
2022-10-09T03:16:14.907Z,7.31
2022-10-09T03:18:42.990Z,7.36
2022-10-09T03:21:12.715Z,7.28
2022-10-09T03:23:40.567Z,7.37
2022-10-09T03:26:10.292Z,7.43
2022-10-09T03:28:40.345Z,7.26
2022-10-09T03:31:08.779Z,7.27
2022-10-09T03:33:36.790Z,7.18
2022-10-09T03:36:05.799Z,7.17
2022-10-09T03:38:33.186Z,7.12
2022-10-09T03:41:02.415Z,7.15
2022-10-09T03:43:29.753Z,7.21
2022-10-09T03:46:01.016Z,7.28
2022-10-09T03:48:28.399Z,7.35
2022-10-09T03:50:55.598Z,7.38
2022-10-09T03:53:23.020Z,7.29
2022-10-09T03:55:50.147Z,7.31
2022-10-09T03:58:17.251Z,7.28
2022-10-09T04:00:47.508Z,7.32
2022-10-09T04:03:14.677Z,7.40
2022-10-09T04:05:41.828Z,7.39
2022-10-09T04:08:09.546Z,7.32
2022-10-09T04:10:36.689Z,7.37
2022-10-09T04:13:03.898Z,7.29
2022-10-09T04:15:31.316Z,7.25
2022-10-09T04:17:58.476Z,7.14
2022-10-09T04:20:25.744Z,7.14
2022-10-09T04:22:53.221Z,7.17
2022-10-09T04:25:20.431Z,7.20
2022-10-09T04:27:47.587Z,7.08
2022-10-09T04:30:15.106Z,7.09
2022-10-09T04:32:42.333Z,7.02
2022-10-09T04:35:09.465Z,7.09
2022-10-09T04:37:36.907Z,7.05
2022-10-09T04:40:04.899Z,7.05
2022-10-09T04:42:32.102Z,6.97
2022-10-09T04:44:59.448Z,7.18
2022-10-09T04:47:26.582Z,7.10
2022-10-09T04:49:53.744Z,7.26
2022-10-09T04:52:21.095Z,7.15
2022-10-09T04:54:48.214Z,7.27
2022-10-09T04:57:15.437Z,7.16
2022-10-09T04:59:42.852Z,7.13
2022-10-09T05:02:10.110Z,7.11
2022-10-09T05:04:37.399Z,7.14
2022-10-09T05:07:04.735Z,7.07
2022-10-09T05:09:31.945Z,7.13
2022-10-09T05:11:59.074Z,7.10
2022-10-09T05:14:26.491Z,7.10
2022-10-09T05:17:13.130Z,7.11
2022-10-09T05:19:40.967Z,7.15
2022-10-09T05:22:08.133Z,7.24
2022-10-09T05:24:35.262Z,7.34
2022-10-09T05:27:02.627Z,7.51
2022-10-09T05:29:29.867Z,7.49
2022-10-09T05:31:57.030Z,7.64
2022-10-09T05:34:24.405Z,7.56
2022-10-09T05:36:51.578Z,7.66
2022-10-09T05:39:18.943Z,7.89
2022-10-09T05:41:46.312Z,8.07
2022-10-09T05:44:13.519Z,8.67
2022-10-09T05:46:40.855Z,9.24
2022-10-09T05:49:08.083Z,9.50
2022-10-09T05:51:40.111Z,10.37
2022-10-09T05:54:07.450Z,11.61
2022-10-09T05:56:37.598Z,13.56
2022-10-09T05:59:07.418Z,14.71
2022-10-09T06:01:38.977Z,16.58
2022-10-09T06:04:10.040Z,17.38
2022-10-09T06:06:39.696Z,18.04
2022-10-09T06:09:07.952Z,18.60
2022-10-09T06:11:37.290Z,18.60
2022-10-09T06:14:06.318Z,18.95
2022-10-09T06:16:37.454Z,20.30
2022-10-09T06:19:05.767Z,19.47
2022-10-09T06:21:34.172Z,21.36
2022-10-09T06:24:03.368Z,21.56
2022-10-09T06:26:31.003Z,21.87
2022-10-09T06:29:00.756Z,21.08
2022-10-09T06:31:32.871Z,22.81
2022-10-09T06:34:01.663Z,23.33
2022-10-09T06:36:32.825Z,23.59
2022-10-09T06:39:04.325Z,22.13
2022-10-09T06:41:32.230Z,20.70
2022-10-09T06:44:07.580Z,19.24
2022-10-09T06:46:38.134Z,19.14
2022-10-09T06:49:07.417Z,16.25
2022-10-09T06:51:37.122Z,14.62
2022-10-09T06:54:10.190Z,15.53
2022-10-09T06:56:37.697Z,18.89
2022-10-09T06:59:07.294Z,20.82
2022-10-09T07:01:35.715Z,22.87
2022-10-09T07:04:07.118Z,23.53
2022-10-09T07:06:37.160Z,22.91
2022-10-09T07:09:07.740Z,23.96
2022-10-09T07:11:37.932Z,24.07
2022-10-09T07:14:07.875Z,24.27
2022-10-09T07:16:46.622Z,24.19
2022-10-09T07:19:15.760Z,23.75
2022-10-09T07:21:45.735Z,25.74
2022-10-09T07:24:13.560Z,25.82
2022-10-09T07:26:43.291Z,25.89
2022-10-09T07:29:12.166Z,25.77
2022-10-09T07:31:39.347Z,25.69
2022-10-09T07:34:06.861Z,25.94
2022-10-09T07:36:34.538Z,26.24
2022-10-09T07:39:02.030Z,27.52
2022-10-09T07:41:30.447Z,25.04
2022-10-09T07:43:58.489Z,26.75
2022-10-09T07:46:33.010Z,27.20
2022-10-09T07:49:03.203Z,25.33
2022-10-09T07:51:31.909Z,24.14
2022-10-09T07:54:01.895Z,20.95
2022-10-09T07:56:34.884Z,18.96
2022-10-09T07:59:05.129Z,18.72
2022-10-09T08:01:34.402Z,17.96
2022-10-09T08:04:02.226Z,16.82
2022-10-09T08:06:30.006Z,17.27
2022-10-09T08:09:00.768Z,16.86
2022-10-09T08:11:29.981Z,16.42
2022-10-09T08:13:57.508Z,16.22
2022-10-09T08:16:25.843Z,16.50
2022-10-09T08:19:00.817Z,15.67
2022-10-09T08:21:28.898Z,16.16
2022-10-09T08:23:58.024Z,18.50
2022-10-09T08:26:27.156Z,20.47
2022-10-09T08:29:00.031Z,22.58
2022-10-09T08:31:28.105Z,24.73
2022-10-09T08:33:57.373Z,24.40
2022-10-09T08:36:25.189Z,23.13
2022-10-09T08:38:52.946Z,21.69
2022-10-09T08:41:38.685Z,22.72
2022-10-09T08:44:10.460Z,23.76
2022-10-09T08:47:08.913Z,22.20
2022-10-09T08:49:55.170Z,22.75
2022-10-09T08:52:35.600Z,22.95
2022-10-09T08:55:31.513Z,24.59
2022-10-09T08:58:04.604Z,24.23
2022-10-09T09:00:45.967Z,25.52
2022-10-09T09:03:39.878Z,26.47
2022-10-09T09:06:18.370Z,26.92
2022-10-09T09:08:52.138Z,26.41
2022-10-09T09:11:38.723Z,26.50
2022-10-09T09:14:47.291Z,24.03
2022-10-09T09:17:35.795Z,23.09
2022-10-09T09:20:27.129Z,22.04
2022-10-09T09:22:57.980Z,22.39
2022-10-09T09:25:39.757Z,24.33
2022-10-09T09:28:25.798Z,25.53
2022-10-09T09:31:06.248Z,25.04
2022-10-09T09:33:44.429Z,26.37
2022-10-09T09:36:18.155Z,26.10
2022-10-09T09:39:24.952Z,24.99
2022-10-09T09:41:33.023Z,23.79
2022-10-09T09:44:00.322Z,24.69
2022-10-09T09:46:32.411Z,23.27
2022-10-09T09:48:59.895Z,23.36
2022-10-09T09:51:32.223Z,23.85
2022-10-09T09:54:15.662Z,24.77
2022-10-09T09:57:10.998Z,24.53
2022-10-09T09:59:37.146Z,23.88
2022-10-09T10:02:17.236Z,22.25
2022-10-09T10:05:02.256Z,19.28
2022-10-09T10:07:39.191Z,18.24
2022-10-09T10:10:27.463Z,18.71
2022-10-09T10:12:58.822Z,20.47
2022-10-09T10:15:25.971Z,22.08
2022-10-09T10:18:12.715Z,21.26
2022-10-09T10:20:49.684Z,19.48
2022-10-09T10:23:34.360Z,18.52
2022-10-09T10:26:10.284Z,19.73
2022-10-09T10:29:08.344Z,20.95
2022-10-09T10:31:44.448Z,21.81
2022-10-09T10:34:26.855Z,21.65
2022-10-09T10:37:03.362Z,21.94
2022-10-09T10:39:49.555Z,21.18
2022-10-09T10:42:25.007Z,21.48
2022-10-09T10:45:04.250Z,21.55
2022-10-09T10:47:36.560Z,21.68
2022-10-09T10:50:04.056Z,21.64
2022-10-09T10:52:43.378Z,20.60
2022-10-09T10:55:43.591Z,19.14
2022-10-09T10:58:28.922Z,18.47
2022-10-09T11:01:15.112Z,18.37
2022-10-09T11:04:26.480Z,18.24
2022-10-09T11:07:17.662Z,17.85
2022-10-09T11:10:20.213Z,16.78
2022-10-09T11:12:52.855Z,16.83
2022-10-09T11:15:31.026Z,16.26
2022-10-09T11:18:10.565Z,16.28
2022-10-09T11:21:17.258Z,16.02
2022-10-09T11:23:50.351Z,15.76
2022-10-09T11:26:30.995Z,15.93
2022-10-09T11:29:23.505Z,16.06
2022-10-09T11:31:57.713Z,15.91
2022-10-09T11:34:33.515Z,15.87
2022-10-09T11:37:02.071Z,15.66
2022-10-09T11:39:32.636Z,15.51
2022-10-09T11:42:00.698Z,15.70
2022-10-09T11:44:40.110Z,15.49
2022-10-09T11:47:18.059Z,15.67
2022-10-09T11:50:07.051Z,15.62
2022-10-09T11:52:43.232Z,15.05
2022-10-09T11:55:26.869Z,15.13
2022-10-09T11:57:54.515Z,15.35
2022-10-09T12:00:34.434Z,15.16
2022-10-09T12:03:07.256Z,15.29
2022-10-09T12:05:47.382Z,15.26
2022-10-09T12:08:19.503Z,15.68
2022-10-09T12:10:54.023Z,15.75
2022-10-09T12:13:39.263Z,15.93
2022-10-09T12:16:10.494Z,15.77
2022-10-09T12:18:44.278Z,15.30
2022-10-09T12:21:28.070Z,15.41
2022-10-09T12:23:55.592Z,15.15
2022-10-09T12:26:25.855Z,14.81
2022-10-09T12:29:02.019Z,14.56
2022-10-09T12:31:38.566Z,14.54
2022-10-09T12:34:20.990Z,14.27
2022-10-09T12:36:48.561Z,14.18
2022-10-09T12:39:22.974Z,14.06
2022-10-09T12:41:56.751Z,14.04
2022-10-09T12:44:32.548Z,14.21
2022-10-09T12:47:03.957Z,14.42
2022-10-09T12:49:31.566Z,14.53
2022-10-09T12:52:00.457Z,14.71
2022-10-09T12:54:30.528Z,14.96
2022-10-09T12:56:59.766Z,15.05
2022-10-09T12:59:28.726Z,15.41
2022-10-09T13:01:59.068Z,15.25
2022-10-09T13:04:32.092Z,15.14
2022-10-09T13:07:03.544Z,15.29
2022-10-09T13:09:38.756Z,15.01
2022-10-09T13:12:08.704Z,15.25
2022-10-09T13:14:44.732Z,14.76
2022-10-09T13:17:25.747Z,14.86
2022-10-09T13:19:54.876Z,14.46
2022-10-09T13:22:24.407Z,14.63
2022-10-09T13:24:55.353Z,14.51
2022-10-09T13:27:34.367Z,14.64
2022-10-09T13:30:01.779Z,14.80
2022-10-09T13:32:29.359Z,14.91
2022-10-09T13:34:58.112Z,14.83
2022-10-09T13:37:27.004Z,14.53
2022-10-09T13:39:56.613Z,14.05
2022-10-09T13:42:26.980Z,14.32
2022-10-09T13:44:54.461Z,14.34
2022-10-09T13:47:24.648Z,14.16
2022-10-09T13:49:52.318Z,14.21
2022-10-09T13:52:19.559Z,14.15
2022-10-09T13:54:47.062Z,14.03
2022-10-09T13:57:14.270Z,14.20
2022-10-09T13:59:41.450Z,13.98
2022-10-09T14:02:11.195Z,13.91
2022-10-09T14:04:38.814Z,14.06
2022-10-09T14:07:05.939Z,13.97
2022-10-09T14:09:33.289Z,13.74
2022-10-09T14:12:00.463Z,13.79
2022-10-09T14:14:27.665Z,13.83
2022-10-09T14:16:55.030Z,13.67
2022-10-09T14:19:27.248Z,13.66
2022-10-09T14:21:55.311Z,13.34
2022-10-09T14:24:23.593Z,13.15
2022-10-09T14:26:51.911Z,13.34
2022-10-09T14:29:19.171Z,13.14
2022-10-09T14:31:46.581Z,13.39
2022-10-09T14:34:14.803Z,13.41
2022-10-09T14:36:42.435Z,13.21
2022-10-09T14:39:09.893Z,13.06
2022-10-09T14:41:38.109Z,13.08
2022-10-09T14:44:06.187Z,13.07
2022-10-09T14:46:37.903Z,13.08
2022-10-09T14:49:07.599Z,12.71
2022-10-09T14:51:40.564Z,12.44
2022-10-09T14:54:08.816Z,12.56
2022-10-09T14:56:36.563Z,12.34
2022-10-09T14:59:05.969Z,12.18
2022-10-09T15:01:34.212Z,11.99
2022-10-09T15:04:02.438Z,11.86
2022-10-09T15:06:29.988Z,11.82
2022-10-09T15:09:04.811Z,11.66
2022-10-09T15:11:35.173Z,11.47
2022-10-09T15:14:02.813Z,11.44
2022-10-09T15:16:30.663Z,11.29
2022-10-09T15:18:58.356Z,11.26
2022-10-09T15:21:28.622Z,11.14
2022-10-09T15:23:57.373Z,10.89
2022-10-09T15:26:27.013Z,10.96
2022-10-09T15:28:54.385Z,10.85
2022-10-09T15:31:30.687Z,10.88
2022-10-09T15:34:01.217Z,10.76
2022-10-09T15:36:30.431Z,10.64
2022-10-09T15:38:57.851Z,10.45
2022-10-09T15:41:27.776Z,10.42
2022-10-09T15:44:14.106Z,10.36
2022-10-09T15:46:41.483Z,10.22
2022-10-09T15:49:09.058Z,10.33
2022-10-09T15:51:36.325Z,10.19
2022-10-09T15:54:04.437Z,10.27
2022-10-09T15:56:33.869Z,10.23
2022-10-09T15:59:04.892Z,10.06
2022-10-09T16:01:32.176Z,9.89
2022-10-09T16:03:59.357Z,9.78
2022-10-09T16:06:26.808Z,9.65
2022-10-09T16:08:58.397Z,9.53
2022-10-09T16:11:26.665Z,9.42
2022-10-09T16:13:55.564Z,9.31
2022-10-09T16:16:25.204Z,9.25
2022-10-09T16:18:53.049Z,9.29
2022-10-09T16:21:23.299Z,9.12
2022-10-09T16:23:55.792Z,9.10
2022-10-09T16:26:28.483Z,8.96
2022-10-09T16:28:55.879Z,8.90
2022-10-09T16:31:26.044Z,8.84
2022-10-09T16:33:54.491Z,8.88
2022-10-09T16:36:22.265Z,8.95
2022-10-09T16:38:49.660Z,8.80
2022-10-09T16:41:19.069Z,8.77
2022-10-09T16:43:48.628Z,8.89
2022-10-09T16:46:20.436Z,8.87
2022-10-09T16:48:48.641Z,8.83
2022-10-09T16:51:22.180Z,8.62
2022-10-09T16:53:51.460Z,8.62
2022-10-09T16:56:20.849Z,8.53
2022-10-09T16:58:48.577Z,8.45
2022-10-09T17:01:16.137Z,8.39
2022-10-09T17:03:43.322Z,8.46
2022-10-09T17:06:13.749Z,8.35
2022-10-09T17:08:40.934Z,8.39
2022-10-09T17:11:10.615Z,8.24
2022-10-09T17:13:38.139Z,8.18
2022-10-09T17:16:15.672Z,8.14
2022-10-09T17:18:44.754Z,8.27
2022-10-09T17:21:13.604Z,8.17
2022-10-09T17:23:41.660Z,8.60
2022-10-09T17:26:15.286Z,8.61
2022-10-09T17:28:42.763Z,8.68
2022-10-09T17:31:16.401Z,8.58
2022-10-09T17:33:46.324Z,8.39
2022-10-09T17:36:16.657Z,8.42
2022-10-09T17:38:44.700Z,8.30
2022-10-09T17:41:13.492Z,8.16
2022-10-09T17:43:41.642Z,8.23
2022-10-09T17:46:09.500Z,8.37
2022-10-09T17:48:39.359Z,8.35
2022-10-09T17:51:06.739Z,8.27
2022-10-09T17:53:33.903Z,8.17
2022-10-09T17:56:04.157Z,8.11
2022-10-09T17:58:31.589Z,8.13
2022-10-09T18:00:59.016Z,8.02
2022-10-09T18:03:26.196Z,7.88
2022-10-09T18:05:53.548Z,7.95
2022-10-09T18:08:22.259Z,7.90
2022-10-09T18:11:05.702Z,8.05
2022-10-09T18:13:34.816Z,7.83
2022-10-09T18:16:06.309Z,7.74
2022-10-09T18:18:33.614Z,7.74
2022-10-09T18:21:08.756Z,7.60
2022-10-09T18:23:36.674Z,7.70
2022-10-09T18:26:11.905Z,7.69
2022-10-09T18:28:39.195Z,7.88
2022-10-09T18:31:16.399Z,7.96
2022-10-09T18:33:43.910Z,7.92
2022-10-09T18:36:19.423Z,7.83
2022-10-09T18:38:55.406Z,7.79
2022-10-09T18:41:24.138Z,7.73
2022-10-09T18:43:52.201Z,7.64
2022-10-09T18:46:23.985Z,7.48
2022-10-09T18:48:52.238Z,8.13
2022-10-09T18:51:23.361Z,8.54
2022-10-09T18:53:56.210Z,8.77
2022-10-09T18:56:24.119Z,8.71
2022-10-09T18:58:52.828Z,8.82
2022-10-09T19:01:20.733Z,8.85
2022-10-09T19:03:50.172Z,8.53
2022-10-09T19:06:19.301Z,8.20
2022-10-09T19:08:46.912Z,7.96
2022-10-09T19:11:14.729Z,7.72
2022-10-09T19:13:43.389Z,7.68
2022-10-09T19:16:10.944Z,7.55
2022-10-09T19:18:38.289Z,7.37
2022-10-09T19:21:05.840Z,7.34
2022-10-09T19:23:33.136Z,7.34
2022-10-09T19:26:00.872Z,7.22
2022-10-09T19:28:32.968Z,7.21
2022-10-09T19:31:02.660Z,7.67
2022-10-09T19:33:29.959Z,7.59
2022-10-09T19:35:57.547Z,7.88
2022-10-09T19:38:26.967Z,8.06
2022-10-09T19:40:54.771Z,8.35
2022-10-09T19:43:23.685Z,8.53
2022-10-09T19:46:00.939Z,8.47
2022-10-09T19:48:28.235Z,8.47
2022-10-09T19:50:55.914Z,8.38
2022-10-09T19:53:23.110Z,8.28
2022-10-09T19:55:50.597Z,7.91
2022-10-09T19:58:18.054Z,7.71
2022-10-09T20:00:48.284Z,7.77
2022-10-09T20:03:15.569Z,7.65
2022-10-09T20:05:43.107Z,7.65
2022-10-09T20:08:10.345Z,7.56
2022-10-09T20:10:38.407Z,7.65
2022-10-09T20:13:06.189Z,7.60
2022-10-09T20:15:33.517Z,7.86
2022-10-09T20:18:00.969Z,7.74
2022-10-09T20:20:28.321Z,7.59
2022-10-09T20:22:55.848Z,7.45
2022-10-09T20:25:24.485Z,7.34
2022-10-09T20:27:51.761Z,7.43
2022-10-09T20:30:19.164Z,7.36
2022-10-09T20:32:49.185Z,7.28
2022-10-09T20:35:16.913Z,7.43
2022-10-09T20:37:44.192Z,7.46
2022-10-09T20:40:11.599Z,7.43
2022-10-09T20:42:38.818Z,7.25
2022-10-09T20:45:06.844Z,7.44
2022-10-09T20:47:34.686Z,7.98
2022-10-09T20:50:02.481Z,7.95
2022-10-09T20:52:29.882Z,8.02
2022-10-09T20:54:57.272Z,8.18
2022-10-09T20:57:24.504Z,8.05
2022-10-09T20:59:51.881Z,8.21
2022-10-09T21:02:19.097Z,8.40
2022-10-09T21:04:46.583Z,8.42
2022-10-09T21:07:13.829Z,8.31
2022-10-09T21:09:41.261Z,8.24
2022-10-09T21:12:08.401Z,8.21
2022-10-09T21:14:37.099Z,8.21
2022-10-09T21:17:04.265Z,8.15
2022-10-09T21:19:31.679Z,7.95
2022-10-09T21:21:58.895Z,7.91
2022-10-09T21:24:27.717Z,7.76
2022-10-09T21:26:54.964Z,7.76
2022-10-09T21:29:22.457Z,7.77
2022-10-09T21:31:49.619Z,7.90
2022-10-09T21:34:17.008Z,7.82
2022-10-09T21:37:20.843Z,7.78
2022-10-09T21:39:37.300Z,7.84
2022-10-09T21:42:04.731Z,8.08
2022-10-09T21:44:32.134Z,8.06
2022-10-09T21:46:59.434Z,7.91
2022-10-09T21:49:28.053Z,7.62
2022-10-09T21:51:56.171Z,7.61
2022-10-09T21:54:23.752Z,7.52
2022-10-09T21:56:50.955Z,7.45
2022-10-09T21:59:18.119Z,7.48
2022-10-09T22:01:45.520Z,7.58
2022-10-09T22:04:12.800Z,7.71
2022-10-09T22:06:41.208Z,7.90
2022-10-09T22:09:08.943Z,7.94
2022-10-09T22:11:36.232Z,8.00
2022-10-09T22:14:05.084Z,7.96
2022-10-09T22:16:32.420Z,8.18
2022-10-09T22:19:00.393Z,8.04
2022-10-09T22:21:27.843Z,8.07
2022-10-09T22:23:55.119Z,7.95
2022-10-09T22:26:23.474Z,8.02
2022-10-09T22:28:50.628Z,8.09
2022-10-09T22:31:19.922Z,8.07
2022-10-09T22:33:54.832Z,8.17
2022-10-09T22:36:24.190Z,8.28
2022-10-09T22:38:58.848Z,8.16
2022-10-09T22:41:28.210Z,8.17
2022-10-09T22:43:59.461Z,8.10
2022-10-09T22:46:31.230Z,8.14
2022-10-09T22:48:58.945Z,8.22
2022-10-09T22:51:28.165Z,8.17
2022-10-09T22:53:57.059Z,8.00
2022-10-09T22:56:27.014Z,8.04
2022-10-09T22:58:54.478Z,7.77
2022-10-09T23:01:30.031Z,7.83
2022-10-09T23:03:58.642Z,7.87
2022-10-09T23:06:25.982Z,7.87
2022-10-09T23:08:53.551Z,7.96
2022-10-09T23:11:21.745Z,8.04
2022-10-09T23:13:54.262Z,7.92
2022-10-09T23:16:21.950Z,7.93
2022-10-09T23:18:49.502Z,8.19
2022-10-09T23:21:19.041Z,8.15
2022-10-09T23:23:48.131Z,8.02
2022-10-09T23:26:18.737Z,8.06
2022-10-09T23:28:54.849Z,7.99
2022-10-09T23:31:23.075Z,8.28
2022-10-09T23:33:50.636Z,8.13
2022-10-09T23:36:20.795Z,8.19
2022-10-09T23:38:48.823Z,8.21
2022-10-09T23:41:21.232Z,8.11
2022-10-09T23:43:49.544Z,7.96
2022-10-09T23:46:19.530Z,8.09
2022-10-09T23:48:47.590Z,8.11
2022-10-09T23:51:15.924Z,7.87
2022-10-09T23:53:43.951Z,7.83
2022-10-09T23:56:21.551Z,7.97
2022-10-09T23:58:49.294Z,7.98
